Fishertown, PA (15539)

7:06 PM EST on December 22, 2014 (GMT -0500)
Claysburg (Near Queen,PA) | Change Station
CLOSE
Current Station
Personal Weather Station
Location: Claysburg, PA
Elevation: 1240 ft
Nearby Weather Stations
Active Advisory: Freezing Rain Advisory

Elev 1240 ft 40.26 °N, 78.49 °W | Updated 20 seconds ago

Overcast
Overcast
29.7 °F
Feels Like 30 °F
N
0.0
Wind Variable Wind from WSW
Gusts 0.0 mph

Today
High -- | Low -- °F
--% Chance of Precip.
Yesterday
High -- | Low -- °F
Precip. -- in
7:33 AM 4:52 PM
New Moon, 1% visible
Pressure 30.12 in
Visibility 3.0 miles
Clouds Overcast 600 ft
Windchill 30 °F
Dew Point 28 °F
Humidity 93%
Rainfall 0.00 in
Snow Depth Not available.
UV 0 out of 12
Pollen .10 out of 12
Air Quality Not available.
Flu Activity Not available.
SPECI KAOO 230000Z AUTO 12003KT 3SM BR OVC006 M01/M02 A3012 RMK AO2 CIG 004V009 T10111017

More Conditions Fewer Conditions

Pressure 30.12 in
Visibility 3.0 miles
Clouds Overcast 600 ft
Windchill 30 °F
Dew Point 28 °F
Humidity 93%
Rainfall 0.00 in
Snow Depth Not available.
UV 0 out of 12
Pollen .10 out of 12
Air Quality Not available.
Flu Activity Not available.
SPECI KAOO 230000Z AUTO 12003KT 3SM BR OVC006 M01/M02 A3012 RMK AO2 CIG 004V009 T10111017

More Conditions Fewer Conditions

10-Day Weather Forecast

Almanac

Astronomy

Dec. 22, 2014 Rise Set
Actual Time
Civil Twilight
Nautical Twilight
Astronomical Twilight
Moon
Length of Visible Light
Length of Day
Tomorrow will be .
, % of the Moon is Illuminated

Today's Extremes

State Highs State Lows

Community

WunderPhotos

Upload Photos

1,779,732 photos uploaded!

WunderBlogs® & News

Nearby

Air Quality

  Air Quality AQ Index Pollutant
Not available.

Snow Depth

Station Depth Elevation

Earthquake Activity

City Distance Mag. Time & Date
Minimum magnitude displayed is 2.5.

Coastal Water Temperatures

Place Temperature

Nearby Weather Stations